Time;durP1;ratioP1;P1;durP2;ratioP2;P2;SDS_P1;SDS_P2;PMS_P1;PMS_P2;Temp;Humidity;BMP_temperature;BMP_pressure;BME280_temperature;BME280_humidity;BME280_pressure;Samples;Min_cycle;Max_cycle;Signal;HPM_P1;HPM_P2
2023/03/12 00:00:15;;;;;;;1999.90;999.90;;;;;;;5.49;58.83;97358.47;5115180;28;20024;-84
2023/03/12 00:02:41;;;;;;;1999.90;999.90;;;;;;;5.41;59.81;97370.72;5111816;28;20024;-83
2023/03/12 00:05:06;;;;;;;1999.90;999.90;;;;;;;5.37;59.72;97367.75;5114344;28;20004;-82
2023/03/12 00:07:32;;;;;;;1999.90;999.90;;;;;;;5.33;60.52;97391.06;5108965;28;20024;-84
2023/03/12 00:09:57;;;;;;;1999.90;999.90;;;;;;;5.35;60.75;97383.50;5105920;28;20028;-85
2023/03/12 00:12:23;;;;;;;1999.90;999.90;;;;;;;5.37;60.26;97388.63;5111842;28;20055;-84
2023/03/12 00:14:48;;;;;;;1999.90;999.90;;;;;;;5.42;60.72;97390.53;5112071;28;20036;-86
2023/03/12 00:17:13;;;;;;;1999.90;999.90;;;;;;;5.38;60.64;97399.22;5113141;28;20014;-83
2023/03/12 00:19:39;;;;;;;1999.90;999.90;;;;;;;5.28;60.30;97393.00;5113047;28;20035;-84
2023/03/12 00:22:04;;;;;;;1999.90;999.90;;;;;;;5.35;60.32;97412.50;5112886;28;20031;-85
2023/03/12 00:24:29;;;;;;;1999.90;999.90;;;;;;;5.31;60.62;97411.41;5103228;28;20016;-82
2023/03/12 00:26:55;;;;;;;1999.90;999.90;;;;;;;5.27;60.56;97405.72;5094616;28;20174;-84
2023/03/12 00:29:20;;;;;;;1999.90;999.90;;;;;;;5.24;60.92;97411.69;5112653;28;20032;-81
2023/03/12 00:31:46;;;;;;;1999.90;999.90;;;;;;;5.20;60.99;97413.31;5107475;28;20015;-82
2023/03/12 00:34:11;;;;;;;1999.90;999.90;;;;;;;5.12;61.58;97402.25;5105020;28;20062;-85
2023/03/12 00:36:37;;;;;;;1999.90;999.90;;;;;;;5.02;61.73;97411.19;5100864;28;20028;-82
2023/03/12 00:39:02;;;;;;;1999.90;999.90;;;;;;;5.08;61.86;97401.97;5114040;28;20051;-85
2023/03/12 00:41:29;;;;;;;1999.90;999.90;;;;;;;5.02;61.98;97413.91;5113941;28;20020;-82
2023/03/12 00:43:55;;;;;;;1999.90;999.90;;;;;;;4.99;62.65;97414.44;5109658;28;20024;-86
2023/03/12 00:46:21;;;;;;;1999.90;999.90;;;;;;;5.07;61.09;97427.47;5105585;28;20028;-80
2023/03/12 00:48:46;;;;;;;1999.90;999.90;;;;;;;5.07;60.99;97441.03;5085474;28;20469;-82
2023/03/12 00:51:11;;;;;;;1999.90;999.90;;;;;;;4.98;60.67;97429.06;5099524;28;20019;-85
2023/03/12 00:53:38;;;;;;;1999.90;999.90;;;;;;;4.97;60.86;97427.47;5103420;28;20042;-84
2023/03/12 00:56:04;;;;;;;1999.90;999.90;;;;;;;4.87;60.03;97427.47;5100831;28;20482;-81
2023/03/12 00:58:30;;;;;;;1999.90;999.90;;;;;;;4.85;59.71;97424.22;5097463;28;20432;-83
2023/03/12 01:00:55;;;;;;;1999.90;999.90;;;;;;;4.80;60.05;97437.75;5096121;28;20020;-84
2023/03/12 01:03:20;;;;;;;1999.90;999.90;;;;;;;4.80;60.21;97452.13;5084131;28;20051;-83
2023/03/12 01:05:48;;;;;;;1999.90;999.90;;;;;;;4.79;59.52;97438.88;5085316;28;20020;-83
2023/03/12 01:08:13;;;;;;;1999.90;999.90;;;;;;;4.80;59.18;97454.00;5097416;28;20028;-81
2023/03/12 01:10:41;;;;;;;1999.90;999.90;;;;;;;4.81;58.63;97466.47;5097628;28;20027;-85
2023/03/12 01:13:07;;;;;;;1999.90;999.90;;;;;;;4.71;58.94;97469.19;5099068;28;20044;-83
2023/03/12 01:15:32;;;;;;;1999.90;999.90;;;;;;;4.70;58.99;97462.94;5097171;28;20032;-81
2023/03/12 01:17:57;;;;;;;1999.90;999.90;;;;;;;4.66;59.40;97459.16;5097005;28;20020;-85
2023/03/12 01:20:23;;;;;;;1999.90;999.90;;;;;;;4.72;59.79;97473.53;5086003;28;20385;-83
2023/03/12 01:22:49;;;;;;;1999.90;999.90;;;;;;;4.67;59.29;97466.19;5073731;28;20024;-83
2023/03/12 01:25:14;;;;;;;1999.90;999.90;;;;;;;4.61;60.09;97458.31;5092538;28;20016;-79
2023/03/12 01:27:40;;;;;;;1999.90;999.90;;;;;;;4.54;60.21;97455.09;5079985;28;20028;-84
2023/03/12 01:30:06;;;;;;;1999.90;999.90;;;;;;;4.54;60.43;97463.22;5092273;28;20031;-83
2023/03/12 01:32:32;;;;;;;1999.90;999.90;;;;;;;4.36;60.76;97453.69;5075657;28;20026;-83
2023/03/12 01:34:57;;;;;;;1999.90;999.90;;;;;;;4.44;61.05;97463.19;5079806;28;20016;-82
2023/03/12 01:37:23;;;;;;;1999.90;999.90;;;;;;;4.36;61.36;97452.88;5081209;28;20077;-79
2023/03/12 01:39:48;;;;;;;1999.90;999.90;;;;;;;4.37;61.58;97459.94;5087088;28;20063;-82
2023/03/12 01:42:14;;;;;;;1999.90;999.90;;;;;;;4.31;61.40;97462.63;5073901;28;20025;-81
2023/03/12 01:44:58;;;;;;;1999.90;999.90;;;;;;;4.26;61.64;97462.59;5078702;28;20020;-84
2023/03/12 01:47:24;;;;;;;1999.90;999.90;;;;;;;4.27;61.37;97472.34;5085638;28;20035;-83
2023/03/12 01:49:51;;;;;;;1999.90;999.90;;;;;;;4.26;60.98;97469.94;5078314;28;20033;-81
2023/03/12 01:52:43;;;;;;;1999.90;999.90;;;;;;;4.24;60.85;97472.91;5078060;28;20055;-83
2023/03/12 01:55:11;;;;;;;1999.90;999.90;;;;;;;4.21;61.25;97480.72;5073973;28;20056;-84
2023/03/12 01:57:46;;;;;;;1999.90;999.90;;;;;;;4.18;61.39;97481.25;5079103;28;20056;-84
2023/03/12 02:00:19;;;;;;;1999.90;999.90;;;;;;;4.15;61.42;97479.91;5081777;28;20028;-83
2023/03/12 02:02:47;;;;;;;1999.90;999.90;;;;;;;4.20;61.62;97487.22;5097126;28;20020;-84
2023/03/12 02:05:24;;;;;;;1999.90;999.90;;;;;;;4.20;61.63;97493.44;5100958;28;20036;-84
2023/03/12 02:07:49;;;;;;;1999.90;999.90;;;;;;;4.18;61.28;97495.63;5099421;28;20056;-82
2023/03/12 02:10:16;;;;;;;1999.90;999.90;;;;;;;4.20;61.58;97493.44;5099598;28;20058;-80
2023/03/12 02:12:41;;;;;;;1999.90;999.90;;;;;;;4.16;61.66;97488.84;5098452;28;20020;-81
2023/03/12 02:15:08;;;;;;;1999.90;999.90;;;;;;;4.11;61.18;97489.63;5098717;28;20483;-82
2023/03/12 02:17:35;;;;;;;1999.90;999.90;;;;;;;4.09;61.11;97486.38;5096517;28;20361;-82
2023/03/12 02:20:01;;;;;;;1999.90;999.90;;;;;;;4.07;61.40;97493.94;5097030;28;20036;-81
2023/03/12 02:22:28;;;;;;;1999.90;999.90;;;;;;;4.02;60.74;97483.09;5097616;28;20043;-82
2023/03/12 02:25:05;;;;;;;1999.90;999.90;;;;;;;4.03;60.97;97516.38;5096557;28;20031;-87
2023/03/12 02:27:33;;;;;;;1999.90;999.90;;;;;;;4.05;61.27;97523.16;5096934;28;20024;-83
2023/03/12 02:29:59;;;;;;;1999.90;999.90;;;;;;;4.13;60.94;97519.16;5097464;28;20091;-80
2023/03/12 02:32:34;;;;;;;1999.90;999.90;;;;;;;4.11;61.20;97524.81;5083881;28;20071;-85
2023/03/12 02:35:00;;;;;;;1999.90;999.90;;;;;;;4.14;60.72;97516.16;5080318;28;20036;-81
2023/03/12 02:37:26;;;;;;;1999.90;999.90;;;;;;;4.00;61.73;97509.63;5080427;28;20028;-83
2023/03/12 02:40:12;;;;;;;1999.90;999.90;;;;;;;4.04;62.28;97509.91;5078106;28;20032;-83
2023/03/12 02:42:37;;;;;;;1999.90;999.90;;;;;;;3.87;62.32;97496.56;5078976;28;20033;-83
2023/03/12 02:45:03;;;;;;;1999.90;999.90;;;;;;;3.78;61.93;97526.03;5081910;28;20044;-83
2023/03/12 02:47:29;;;;;;;1999.90;999.90;;;;;;;3.79;61.21;97543.03;5101177;28;20024;-84
2023/03/12 02:49:54;;;;;;;1999.90;999.90;;;;;;;3.79;61.08;97540.34;5099288;28;20062;-82
2023/03/12 02:52:19;;;;;;;1999.90;999.90;;;;;;;3.75;61.54;97536.53;5099255;28;20537;-80
2023/03/12 02:54:45;;;;;;;1999.90;999.90;;;;;;;3.64;61.36;97540.25;5100356;28;20530;-82
2023/03/12 02:57:10;;;;;;;1999.90;999.90;;;;;;;3.66;61.84;97543.53;5105356;28;20024;-87
2023/03/12 02:59:36;;;;;;;1999.90;999.90;;;;;;;3.68;62.09;97549.47;5119461;28;20031;-85
2023/03/12 03:02:01;;;;;;;1999.90;999.90;;;;;;;3.61;62.09;97551.59;5118445;28;20019;-83
2023/03/12 03:04:28;;;;;;;1999.90;999.90;;;;;;;3.63;62.43;97561.06;5124020;28;20041;-83
2023/03/12 03:06:54;;;;;;;1999.90;999.90;;;;;;;3.60;62.34;97563.50;5124832;28;20024;-83
2023/03/12 03:09:21;;;;;;;1999.90;999.90;;;;;;;3.59;62.49;97561.84;5126773;28;20101;-84
2023/03/12 03:11:47;;;;;;;1999.90;999.90;;;;;;;3.58;62.61;97566.44;5124021;28;20019;-84
2023/03/12 03:14:13;;;;;;;1999.90;999.90;;;;;;;3.55;63.06;97564.25;5125005;28;20067;-84
2023/03/12 03:16:38;;;;;;;1999.90;999.90;;;;;;;3.54;63.13;97554.50;5123276;28;20526;-83
2023/03/12 03:19:04;;;;;;;1999.90;999.90;;;;;;;3.58;62.93;97569.16;5125742;28;20012;-85
2023/03/12 03:21:30;;;;;;;1999.90;999.90;;;;;;;3.58;63.02;97573.75;5124150;28;20027;-83
2023/03/12 03:23:55;;;;;;;1999.90;999.90;;;;;;;3.51;63.25;97570.47;5120986;28;20085;-82
2023/03/12 03:26:22;;;;;;;1999.90;999.90;;;;;;;3.59;62.97;97583.50;5120212;28;20019;-82
2023/03/12 03:28:47;;;;;;;1999.90;999.90;;;;;;;3.48;63.28;97587.19;5115813;28;20476;-80
2023/03/12 03:31:13;;;;;;;1999.90;999.90;;;;;;;3.51;63.37;97586.69;5116808;27;20031;-81
2023/03/12 03:33:39;;;;;;;1999.90;999.90;;;;;;;3.47;63.39;97597.19;5117670;28;20042;-83
2023/03/12 03:36:07;;;;;;;1999.90;999.90;;;;;;;3.51;63.28;97586.69;5117800;28;20058;-84
2023/03/12 03:38:33;;;;;;;1999.90;999.90;;;;;;;3.44;63.52;97597.72;5119411;28;20038;-83
2023/03/12 03:40:59;;;;;;;1999.90;999.90;;;;;;;3.38;63.68;97581.72;5117109;28;20023;-84
2023/03/12 03:43:25;;;;;;;1999.90;999.90;;;;;;;3.47;63.85;97601.78;5094649;28;20054;-81
2023/03/12 03:45:58;;;;;;;1999.90;999.90;;;;;;;3.37;64.14;97601.69;5095719;28;20253;-82
2023/03/12 03:48:24;;;;;;;1999.90;999.90;;;;;;;3.33;64.28;97605.97;5097573;28;20109;-83
2023/03/12 03:50:49;;;;;;;1999.90;999.90;;;;;;;3.28;64.50;97609.47;5097373;28;20023;-81
2023/03/12 03:53:14;;;;;;;1999.90;999.90;;;;;;;3.27;64.37;97612.41;5114387;28;20037;-84
2023/03/12 03:55:40;;;;;;;1999.90;999.90;;;;;;;3.23;64.77;97614.81;5104196;28;20502;-85
2023/03/12 03:58:05;;;;;;;1999.90;999.90;;;;;;;3.15;64.86;97610.72;5085322;28;20027;-84
2023/03/12 04:00:31;;;;;;;1999.90;999.90;;;;;;;3.07;65.70;97615.78;5074762;28;20046;-79
2023/03/12 04:02:57;;;;;;;1999.90;999.90;;;;;;;3.02;66.03;97619.22;5079076;28;20050;-84
2023/03/12 04:05:24;;;;;;;1999.90;999.90;;;;;;;2.93;66.01;97622.63;5095033;28;20028;-75
2023/03/12 04:07:51;;;;;;;1999.90;999.90;;;;;;;2.91;66.07;97625.59;5093069;28;20094;-75
2023/03/12 04:10:21;;;;;;;1999.90;999.90;;;;;;;2.94;66.57;97637.78;5092164;28;20047;-74
2023/03/12 04:12:47;;;;;;;1999.90;999.90;;;;;;;2.80;66.43;97634.66;5092763;28;20027;-74
2023/03/12 04:15:12;;;;;;;1999.90;999.90;;;;;;;2.89;65.98;97638.53;5091858;28;20028;-75
2023/03/12 04:17:38;;;;;;;1999.90;999.90;;;;;;;2.86;66.55;97649.84;5092158;28;20028;-75
2023/03/12 04:20:06;;;;;;;1999.90;999.90;;;;;;;2.82;66.93;97648.72;5092770;28;20381;-77
2023/03/12 04:22:32;;;;;;;1999.90;999.90;;;;;;;2.78;66.92;97658.41;5095576;28;20035;-76
2023/03/12 04:24:57;;;;;;;1999.90;999.90;;;;;;;2.65;67.35;97650.69;5093793;28;20024;-75
2023/03/12 04:27:22;;;;;;;1999.90;999.90;;;;;;;2.66;66.96;97661.22;5093035;28;20028;-76
2023/03/12 04:29:48;;;;;;;1999.90;999.90;;;;;;;2.67;67.66;97672.84;5094288;28;20061;-75
2023/03/12 04:32:13;;;;;;;1999.90;999.90;;;;;;;2.65;67.62;97674.97;5092402;28;20020;-77
2023/03/12 04:34:39;;;;;;;1999.90;999.90;;;;;;;2.61;67.78;97681.94;5094157;28;20110;-75
2023/03/12 04:37:04;;;;;;;1999.90;999.90;;;;;;;2.64;67.72;97678.75;5095910;28;20059;-76
2023/03/12 04:39:29;;;;;;;1999.90;999.90;;;;;;;2.57;67.74;97688.91;5095974;28;20020;-77
2023/03/12 04:41:55;;;;;;;1999.90;999.90;;;;;;;2.51;67.84;97679.09;5097083;28;20036;-81
2023/03/12 04:44:20;;;;;;;1999.90;999.90;;;;;;;2.58;68.20;97690.53;5094499;28;20050;-76
2023/03/12 04:46:45;;;;;;;1999.90;999.90;;;;;;;2.50;68.81;97689.13;5100474;28;20046;-78
2023/03/12 04:49:11;;;;;;;1999.90;999.90;;;;;;;2.46;69.09;97692.56;5111090;28;20373;-76
2023/03/12 04:51:36;;;;;;;1999.90;999.90;;;;;;;2.51;68.61;97689.91;5106758;28;20027;-76
2023/03/12 04:54:02;;;;;;;1999.90;999.90;;;;;;;2.53;68.79;97695.88;5091047;28;20028;-81
2023/03/12 04:56:27;;;;;;;1999.90;999.90;;;;;;;2.50;69.06;97693.69;5090684;28;20086;-78
2023/03/12 04:58:52;;;;;;;1999.90;999.90;;;;;;;2.43;69.16;97693.88;5091570;28;20039;-75
2023/03/12 05:01:22;;;;;;;1999.90;999.90;;;;;;;2.37;70.16;97688.66;5091107;28;20034;-76
2023/03/12 05:03:48;;;;;;;1999.90;999.90;;;;;;;2.33;70.50;97693.72;5090294;28;20485;-76
2023/03/12 05:06:13;;;;;;;1999.90;999.90;;;;;;;2.36;70.16;97692.41;5090574;28;20028;-78
2023/03/12 05:08:39;;;;;;;1999.90;999.90;;;;;;;2.30;70.46;97688.00;5090815;28;20091;-77
2023/03/12 05:11:04;;;;;;;1999.90;999.90;;;;;;;2.26;70.94;97689.56;5092610;28;20020;-76
2023/03/12 05:13:29;;;;;;;1999.90;999.90;;;;;;;2.23;71.15;97693.59;5094792;28;20400;-78
2023/03/12 05:15:55;;;;;;;1999.90;999.90;;;;;;;2.20;71.22;97693.25;5091376;28;20024;-76
2023/03/12 05:18:20;;;;;;;1999.90;999.90;;;;;;;2.20;71.19;97699.47;5090390;28;20040;-77
2023/03/12 05:20:46;;;;;;;1999.90;999.90;;;;;;;2.22;70.75;97701.94;5090237;28;20075;-78
2023/03/12 05:23:12;;;;;;;1999.90;999.90;;;;;;;2.20;70.54;97702.19;5089134;28;20416;-75
2023/03/12 05:25:39;;;;;;;1999.90;999.90;;;;;;;2.23;70.41;97704.38;5090588;28;20029;-74
2023/03/12 05:28:04;;;;;;;1999.90;999.90;;;;;;;2.26;69.84;97703.06;5090437;28;20027;-75
2023/03/12 05:30:29;;;;;;;1999.90;999.90;;;;;;;2.30;69.79;97709.59;5092986;28;20067;-74
2023/03/12 05:32:55;;;;;;;1999.90;999.90;;;;;;;2.33;69.85;97715.31;5094482;28;20024;-74
2023/03/12 05:35:22;;;;;;;1999.90;999.90;;;;;;;2.30;69.84;97723.91;5094454;28;20503;-77
2023/03/12 05:37:47;;;;;;;1999.90;999.90;;;;;;;2.30;70.17;97725.78;5094710;28;20032;-76
2023/03/12 05:40:12;;;;;;;1999.90;999.90;;;;;;;2.26;70.61;97735.44;5095570;28;20031;-75
2023/03/12 05:42:38;;;;;;;1999.90;999.90;;;;;;;2.31;70.27;97738.22;5095723;28;20055;-76
2023/03/12 05:45:04;;;;;;;1999.90;999.90;;;;;;;2.32;70.28;97747.97;5095530;28;20024;-76
2023/03/12 05:47:30;;;;;;;1999.90;999.90;;;;;;;2.30;69.69;97745.50;5096372;28;20030;-76
2023/03/12 05:49:55;;;;;;;1999.90;999.90;;;;;;;2.36;70.84;97757.16;5094460;28;20396;-76
2023/03/12 05:52:21;;;;;;;1999.90;999.90;;;;;;;2.37;70.22;97758.81;5094436;28;20089;-77
2023/03/12 05:54:46;;;;;;;1999.90;999.90;;;;;;;2.38;69.99;97760.47;5094370;28;20077;-76
2023/03/12 05:57:12;;;;;;;1999.90;999.90;;;;;;;2.44;70.00;97775.66;5095947;28;20032;-78
2023/03/12 05:59:37;;;;;;;1999.90;999.90;;;;;;;2.43;70.32;97774.00;5102075;28;20377;-75
2023/03/12 06:02:03;;;;;;;1999.90;999.90;;;;;;;2.40;71.07;97777.22;5093674;28;20016;-76
2023/03/12 06:04:28;;;;;;;1999.90;999.90;;;;;;;2.45;70.66;97777.28;5094004;28;20020;-74
2023/03/12 06:06:54;;;;;;;1999.90;999.90;;;;;;;2.51;70.38;97778.97;5094025;28;20444;-75
2023/03/12 06:09:19;;;;;;;1999.90;999.90;;;;;;;2.55;70.20;97793.63;5092228;28;20070;-75
2023/03/12 06:11:44;;;;;;;1999.90;999.90;;;;;;;2.59;70.49;97784.78;5093837;28;20032;-75
2023/03/12 06:14:10;;;;;;;1999.90;999.90;;;;;;;2.62;69.94;97787.00;5093592;28;20032;-74
2023/03/12 06:16:35;;;;;;;1999.90;999.90;;;;;;;2.67;70.25;97792.44;5093865;28;20039;-74
2023/03/12 06:19:02;;;;;;;1999.90;999.90;;;;;;;2.77;69.76;97797.19;5093442;28;20067;-74
2023/03/12 06:21:30;;;;;;;1999.90;999.90;;;;;;;2.91;69.33;97792.25;5093485;28;20047;-74
2023/03/12 06:23:56;;;;;;;1999.90;999.90;;;;;;;3.08;68.43;97791.09;5093164;28;20032;-73
2023/03/12 06:26:22;;;;;;;1999.90;999.90;;;;;;;3.22;67.73;97792.38;5093872;28;20419;-74
2023/03/12 06:28:49;;;;;;;1999.90;999.90;;;;;;;3.28;67.22;97798.66;5085185;28;20502;-73
2023/03/12 06:31:15;;;;;;;1999.90;999.90;;;;;;;3.49;67.04;97799.69;5072906;28;20037;-73
2023/03/12 06:33:40;;;;;;;1999.90;999.90;;;;;;;3.49;65.46;97814.00;5072943;28;20028;-73
2023/03/12 06:36:08;;;;;;;1999.90;999.90;;;;;;;3.57;65.33;97810.06;5104212;28;20047;-73
2023/03/12 06:38:34;;;;;;;1999.90;999.90;;;;;;;3.74;65.36;97818.88;5113442;28;20028;-73
2023/03/12 06:41:05;;;;;;;1999.90;999.90;;;;;;;3.98;63.71;97824.81;5112555;28;20051;-73
2023/03/12 06:43:33;;;;;;;1999.90;999.90;;;;;;;4.09;63.18;97821.13;5113210;28;20126;-73
2023/03/12 06:46:00;;;;;;;1999.90;999.90;;;;;;;4.25;62.77;97828.28;5113225;28;20019;-73
2023/03/12 06:48:27;;;;;;;1999.90;999.90;;;;;;;4.29;62.56;97838.34;5113409;28;20028;-73
2023/03/12 06:50:52;;;;;;;1999.90;999.90;;;;;;;4.44;61.09;97842.25;5094720;28;20032;-73
2023/03/12 06:53:19;;;;;;;1999.90;999.90;;;;;;;4.70;61.05;97847.59;5092648;28;20077;-73
2023/03/12 06:55:45;;;;;;;1999.90;999.90;;;;;;;4.67;60.26;97850.81;5092580;28;20076;-73
2023/03/12 06:58:11;;;;;;;1999.90;999.90;;;;;;;4.57;61.01;97849.94;5092445;28;20032;-74
2023/03/12 07:00:37;;;;;;;1999.90;999.90;;;;;;;4.82;61.28;97850.13;5092259;28;20053;-74
2023/03/12 07:03:03;;;;;;;1999.90;999.90;;;;;;;4.76;59.42;97853.88;5092308;28;20028;-73
2023/03/12 07:05:28;;;;;;;1999.90;999.90;;;;;;;5.12;62.19;97857.59;5092527;28;20032;-73
2023/03/12 07:07:54;;;;;;;1999.90;999.90;;;;;;;5.25;58.32;97852.53;5092276;28;20027;-73
2023/03/12 07:10:19;;;;;;;1999.90;999.90;;;;;;;5.54;58.75;97865.69;5091629;28;20400;-73
2023/03/12 07:12:45;;;;;;;1999.90;999.90;;;;;;;5.92;56.17;97862.56;5091945;28;20035;-74
2023/03/12 07:15:11;;;;;;;1999.90;999.90;;;;;;;5.80;56.95;97865.50;5091528;28;20020;-73
2023/03/12 07:17:36;;;;;;;1999.90;999.90;;;;;;;5.71;56.04;97883.38;5092572;28;20054;-72
2023/03/12 07:20:03;;;;;;;1999.90;999.90;;;;;;;6.11;54.15;97877.28;5093010;28;20020;-73
2023/03/12 07:22:28;;;;;;;1999.90;999.90;;;;;;;6.03;53.77;97885.97;5089119;28;20051;-74
2023/03/12 07:24:53;;;;;;;1999.90;999.90;;;;;;;6.29;53.24;97879.50;5091604;28;20051;-75
2023/03/12 07:27:19;;;;;;;1999.90;999.90;;;;;;;6.30;53.23;97883.84;5091835;28;20030;-74
2023/03/12 07:29:44;;;;;;;1999.90;999.90;;;;;;;6.82;52.05;97880.88;5090287;28;20060;-73
2023/03/12 07:32:10;;;;;;;1999.90;999.90;;;;;;;6.84;52.52;97889.56;5105523;28;20023;-73
2023/03/12 07:34:35;;;;;;;1999.90;999.90;;;;;;;6.66;51.76;97892.84;5101176;28;20035;-74
2023/03/12 07:37:01;;;;;;;1999.90;999.90;;;;;;;7.15;51.36;97893.06;5091274;28;20441;-73
2023/03/12 07:39:26;;;;;;;1999.90;999.90;;;;;;;7.15;49.60;97887.63;5091072;28;20015;-74
2023/03/12 07:41:52;;;;;;;1999.90;999.90;;;;;;;7.40;48.95;97895.72;5090834;28;20762;-74
2023/03/12 07:44:17;;;;;;;1999.90;999.90;;;;;;;7.29;48.82;97898.75;5090904;28;20170;-73
2023/03/12 07:46:42;;;;;;;1999.90;999.90;;;;;;;7.77;48.21;97899.97;5089869;28;20034;-74
2023/03/12 07:49:08;;;;;;;1999.90;999.90;;;;;;;8.34;46.51;97892.06;5090067;28;20044;-75
2023/03/12 07:51:33;;;;;;;1999.90;999.90;;;;;;;8.79;44.53;97906.47;5090368;28;20016;-74
2023/03/12 07:53:59;;;;;;;1999.90;999.90;;;;;;;9.16;43.84;97917.59;5091039;28;20027;-74
2023/03/12 07:56:24;;;;;;;1999.90;999.90;;;;;;;11.71;39.56;97913.47;5091314;28;20062;-75
2023/03/12 07:58:50;;;;;;;1999.90;999.90;;;;;;;13.46;35.67;97919.91;5090871;28;20147;-75
2023/03/12 08:01:15;;;;;;;1999.90;999.90;;;;;;;12.64;35.30;97925.75;5091320;28;20047;-75
2023/03/12 08:03:41;;;;;;;1999.90;999.90;;;;;;;13.38;33.67;97921.47;5091061;28;20077;-86
2023/03/12 08:06:07;;;;;;;1999.90;999.90;;;;;;;13.72;32.79;97923.59;5091142;28;20024;-79
2023/03/12 08:08:32;;;;;;;1999.90;999.90;;;;;;;13.51;32.53;97911.53;5092831;28;20035;-77
2023/03/12 08:10:59;;;;;;;1999.90;999.90;;;;;;;13.56;33.01;97908.66;5093188;28;20028;-85
2023/03/12 08:13:25;;;;;;;1999.90;999.90;;;;;;;11.52;35.76;97909.13;5095741;28;20099;-86
2023/03/12 08:15:51;;;;;;;1999.90;999.90;;;;;;;11.42;36.00;97901.94;5094836;28;20115;-83
2023/03/12 08:18:18;;;;;;;1999.90;999.90;;;;;;;12.50;34.80;97913.19;5092173;28;20069;-77
2023/03/12 08:20:43;;;;;;;1999.90;999.90;;;;;;;12.92;33.32;97907.25;5087970;28;20039;-81
2023/03/12 08:23:09;;;;;;;1999.90;999.90;;;;;;;10.60;36.66;97907.13;5102310;28;20012;-83
2023/03/12 08:25:35;;;;;;;1999.90;999.90;;;;;;;11.61;36.45;97910.88;5099723;28;20073;-79
2023/03/12 08:28:04;;;;;;;1999.90;999.90;;;;;;;11.04;36.35;97908.63;5103940;28;20069;-83
2023/03/12 08:30:30;;;;;;;1999.90;999.90;;;;;;;10.43;37.94;97911.50;5101961;28;20063;-88
2023/03/12 08:32:57;;;;;;;1999.90;999.90;;;;;;;11.26;37.00;97906.03;5098734;28;20028;-84
2023/03/12 08:35:22;;;;;;;1999.90;999.90;;;;;;;10.07;38.99;97906.47;5093866;28;20020;-79
2023/03/12 08:37:48;;;;;;;1999.90;999.90;;;;;;;11.53;36.05;97916.22;5099376;28;20034;-87
2023/03/12 08:40:13;;;;;;;1999.90;999.90;;;;;;;12.43;35.20;97907.31;5102219;28;20028;-84
2023/03/12 08:42:43;;;;;;;1999.90;999.90;;;;;;;13.87;32.50;97917.69;5104644;28;20039;-80
2023/03/12 08:45:13;;;;;;;1999.90;999.90;;;;;;;13.56;33.01;97916.09;5101741;28;20023;-83
2023/03/12 08:47:40;;;;;;;1999.90;999.90;;;;;;;14.64;31.05;97922.59;5098262;28;20115;-86
2023/03/12 08:50:07;;;;;;;1999.90;999.90;;;;;;;13.33;32.07;97918.06;5100054;28;20028;-86
2023/03/12 08:52:32;;;;;;;1999.90;999.90;;;;;;;13.40;32.63;97918.44;5101813;28;20028;-81
2023/03/12 08:54:57;;;;;;;1999.90;999.90;;;;;;;13.94;31.62;97926.28;5105515;28;20078;-82
2023/03/12 08:57:23;;;;;;;1999.90;999.90;;;;;;;11.43;35.91;97913.69;5103635;28;20020;-86
2023/03/12 08:59:48;;;;;;;1999.90;999.90;;;;;;;10.65;36.99;97909.78;5097967;28;20089;-84
2023/03/12 09:02:13;;;;;;;1999.90;999.90;;;;;;;11.70;36.19;97916.50;5102996;28;20020;-87
2023/03/12 09:04:39;;;;;;;1999.90;999.90;;;;;;;11.32;35.29;97910.31;5106842;28;20097;-88
2023/03/12 09:07:04;;;;;;;1999.90;999.90;;;;;;;11.60;35.39;97909.25;5103377;28;20403;-86
2023/03/12 09:09:31;;;;;;;1999.90;999.90;;;;;;;13.13;34.03;97915.81;5097193;28;20067;-81
2023/03/12 09:11:56;;;;;;;1999.90;999.90;;;;;;;10.74;36.08;97915.41;5096823;28;20081;-89
2023/03/12 09:14:22;;;;;;;1999.90;999.90;;;;;;;12.55;34.39;97922.13;5100443;28;20044;-82
2023/03/12 09:16:48;;;;;;;1999.90;999.90;;;;;;;13.06;32.89;97916.22;5106649;28;20031;-81
2023/03/12 09:19:15;;;;;;;1999.90;999.90;;;;;;;11.82;35.25;97922.28;5111799;28;20113;-87
2023/03/12 09:21:40;;;;;;;1999.90;999.90;;;;;;;12.72;33.88;97927.75;5125490;28;20491;-85
2023/03/12 09:24:06;;;;;;;1999.90;999.90;;;;;;;13.95;31.94;97916.09;5122381;28;20031;-83
2023/03/12 09:26:32;;;;;;;1999.90;999.90;;;;;;;13.16;32.49;97909.69;5121943;28;20039;-83
2023/03/12 09:28:58;;;;;;;1999.90;999.90;;;;;;;13.20;33.26;97905.19;5121034;28;20027;-84
2023/03/12 09:31:24;;;;;;;1999.90;999.90;;;;;;;11.17;35.91;97892.25;5127373;28;20027;-84
2023/03/12 09:33:50;;;;;;;1999.90;999.90;;;;;;;12.77;34.01;97902.13;5127426;28;20023;-82
2023/03/12 09:36:16;;;;;;;1999.90;999.90;;;;;;;13.33;33.12;97901.56;5124412;28;20024;-83
2023/03/12 09:38:41;;;;;;;1999.90;999.90;;;;;;;12.65;34.59;97905.44;5125761;28;20020;-83
2023/03/12 09:41:17;;;;;;;1999.90;999.90;;;;;;;12.94;33.48;97913.22;5129032;28;20020;-85
2023/03/12 09:43:49;;;;;;;1999.90;999.90;;;;;;;14.01;31.90;97917.56;5124723;28;20085;-89
2023/03/12 09:46:23;;;;;;;1999.90;999.90;;;;;;;14.67;30.91;97915.63;5127442;28;20024;-87
2023/03/12 09:48:50;;;;;;;1999.90;999.90;;;;;;;13.68;31.47;97917.13;5123125;28;20019;-84
2023/03/12 09:51:37;;;;;;;1999.90;999.90;;;;;;;15.02;30.07;97929.09;5120100;28;20015;-83
2023/03/12 09:54:06;;;;;;;1999.90;999.90;;;;;;;14.73;30.19;97917.91;5117848;28;20023;-87
2023/03/12 09:56:32;;;;;;;1999.90;999.90;;;;;;;14.80;29.84;97912.75;5121040;28;20031;-84
2023/03/12 09:58:58;;;;;;;1999.90;999.90;;;;;;;15.17;29.52;97918.72;5122360;28;20024;-85
2023/03/12 10:01:48;;;;;;;1999.90;999.90;;;;;;;16.12;27.93;97916.53;5122230;28;20031;-88
2023/03/12 10:04:39;;;;;;;1999.90;999.90;;;;;;;15.85;28.39;97907.53;5123233;28;20020;-85
2023/03/12 10:07:16;;;;;;;1999.90;999.90;;;;;;;14.69;30.54;97892.16;5123784;28;20027;-82
2023/03/12 10:10:06;;;;;;;1999.90;999.90;;;;;;;14.94;30.30;97905.09;5123261;28;20054;-82
2023/03/12 10:12:43;;;;;;;1999.90;999.90;;;;;;;15.73;29.23;97896.41;5119192;28;20357;-83
2023/03/12 10:15:37;;;;;;;1999.90;999.90;;;;;;;15.97;28.70;97904.91;5114853;28;20040;-85
2023/03/12 10:18:09;;;;;;;1999.90;999.90;;;;;;;14.70;29.85;97904.78;5106776;28;20047;-87
2023/03/12 10:20:53;;;;;;;1999.90;999.90;;;;;;;15.78;28.99;97915.53;5108383;28;20084;-85
2023/03/12 10:23:29;;;;;;;1999.90;999.90;;;;;;;14.83;30.18;97903.03;5105761;28;20031;-82
2023/03/12 10:26:06;;;;;;;1999.90;999.90;;;;;;;13.84;31.68;97907.34;5104727;28;20027;-80
2023/03/12 10:28:40;;;;;;;1999.90;999.90;;;;;;;14.30;31.17;97906.00;5109010;28;21090;-82
2023/03/12 10:31:14;;;;;;;1999.90;999.90;;;;;;;15.88;29.03;97904.13;5104882;28;20031;-86
2023/03/12 10:33:46;;;;;;;1999.90;999.90;;;;;;;16.62;27.74;97906.34;5106880;28;20051;-84
2023/03/12 10:36:19;;;;;;;1999.90;999.90;;;;;;;17.06;27.30;97905.69;5106119;28;20020;-85
2023/03/12 10:38:47;;;;;;;1999.90;999.90;;;;;;;16.82;27.17;97911.06;5104392;28;20028;-83
2023/03/12 10:41:19;;;;;;;1999.90;999.90;;;;;;;17.59;26.73;97915.09;5106431;28;20031;-86
2023/03/12 10:43:44;;;;;;;1999.90;999.90;;;;;;;17.90;26.31;97920.94;5108186;28;20050;-84
2023/03/12 10:46:43;;;;;;;1999.90;999.90;;;;;;;17.73;26.35;97914.81;5103669;28;20020;-84
2023/03/12 10:49:24;;;;;;;1999.90;999.90;;;;;;;17.37;26.28;97901.63;5103975;28;20020;-85
2023/03/12 10:51:57;;;;;;;1999.90;999.90;;;;;;;17.03;27.13;97920.16;5104895;28;20016;-86
2023/03/12 10:54:28;;;;;;;1999.90;999.90;;;;;;;16.19;28.07;97914.88;5106087;28;20032;-85
2023/03/12 10:56:54;;;;;;;1999.90;999.90;;;;;;;15.57;29.29;97905.56;5106677;28;20028;-88
2023/03/12 10:59:21;;;;;;;1999.90;999.90;;;;;;;16.74;27.79;97911.13;5106974;28;20057;-87